Maldives Meteorological Service

METAR

Station
VRMM
METAR VRMM 252000Z 05004KT 9000 FEW018 SCT280 28/24 Q1010 NOSIG=
VRMH
METAR VRMH 252000Z 00000KT 9999 FEW018 SCT270 25/23 Q1010=
VRMK
METAR VRMK 252000Z VRB02KT 8000 FEW018TCU BKN260 27/24 Q1010=
VRMT
METAR VRMT 252000Z VRB02KT 8000 FEW018 BKN270 27/25 Q1010=
VRMG
METAR VRMG 252000Z 31003KT 8000 FEW018 BKN260 27/24 Q1010=
Last Updated : 2017-02-26 01:00:09

SPECI

Station
VRMM
VRMH
VRMK
VRMT
VRMG
Last Updated : 2017-02-26 01:00:09